sensor_id;sensor_type;location;lat;lon;timestamp;temperature;humidity
47310;DHT22;33046;52.270;6.832;2022-11-15T00:01:12;9.70;99.90
47310;DHT22;33046;52.270;6.832;2022-11-15T00:03:39;9.70;99.90
47310;DHT22;33046;52.270;6.832;2022-11-15T00:06:05;9.80;99.90
47310;DHT22;33046;52.270;6.832;2022-11-15T00:08:31;9.80;99.90
47310;DHT22;33046;52.270;6.832;2022-11-15T00:10:56;9.80;99.90
47310;DHT22;33046;52.270;6.832;2022-11-15T00:13:22;9.80;99.90
47310;DHT22;33046;52.270;6.832;2022-11-15T00:15:49;9.80;99.90
47310;DHT22;33046;52.270;6.832;2022-11-15T00:18:15;9.80;99.90
47310;DHT22;33046;52.270;6.832;2022-11-15T00:20:41;9.80;99.90
47310;DHT22;33046;52.270;6.832;2022-11-15T00:23:06;9.80;99.90
47310;DHT22;33046;52.270;6.832;2022-11-15T00:25:32;9.80;99.90
47310;DHT22;33046;52.270;6.832;2022-11-15T00:27:58;9.80;99.90
47310;DHT22;33046;52.270;6.832;2022-11-15T00:30:25;9.80;99.90
47310;DHT22;33046;52.270;6.832;2022-11-15T00:32:52;9.80;99.90
47310;DHT22;33046;52.270;6.832;2022-11-15T00:35:18;9.80;99.90
47310;DHT22;33046;52.270;6.832;2022-11-15T00:37:43;9.80;99.90
47310;DHT22;33046;52.270;6.832;2022-11-15T00:40:10;9.80;99.90
47310;DHT22;33046;52.270;6.832;2022-11-15T00:42:36;9.80;99.90
47310;DHT22;33046;52.270;6.832;2022-11-15T00:45:01;9.80;99.90
47310;DHT22;33046;52.270;6.832;2022-11-15T00:47:27;9.80;99.90
47310;DHT22;33046;52.270;6.832;2022-11-15T00:49:53;9.80;99.90
47310;DHT22;33046;52.270;6.832;2022-11-15T00:52:19;9.90;99.90
47310;DHT22;33046;52.270;6.832;2022-11-15T00:54:45;9.80;99.90
47310;DHT22;33046;52.270;6.832;2022-11-15T00:57:10;9.90;99.90
47310;DHT22;33046;52.270;6.832;2022-11-15T00:59:35;9.90;99.90
47310;DHT22;33046;52.270;6.832;2022-11-15T01:02:01;9.90;99.90
47310;DHT22;33046;52.270;6.832;2022-11-15T01:04:26;9.90;99.90
47310;DHT22;33046;52.270;6.832;2022-11-15T01:06:54;9.90;99.90
47310;DHT22;33046;52.270;6.832;2022-11-15T01:09:19;9.90;99.90
47310;DHT22;33046;52.270;6.832;2022-11-15T01:11:45;9.90;99.90
47310;DHT22;33046;52.270;6.832;2022-11-15T01:14:10;10.00;99.90
47310;DHT22;33046;52.270;6.832;2022-11-15T01:16:36;10.00;99.90
47310;DHT22;33046;52.270;6.832;2022-11-15T01:19:01;10.00;99.90
47310;DHT22;33046;52.270;6.832;2022-11-15T01:21:27;10.00;99.90
47310;DHT22;33046;52.270;6.832;2022-11-15T01:23:55;10.00;99.90
47310;DHT22;33046;52.270;6.832;2022-11-15T01:26:21;10.00;99.90
47310;DHT22;33046;52.270;6.832;2022-11-15T01:28:46;10.00;99.90
47310;DHT22;33046;52.270;6.832;2022-11-15T01:31:14;10.00;99.90
47310;DHT22;33046;52.270;6.832;2022-11-15T01:33:39;10.00;99.90
47310;DHT22;33046;52.270;6.832;2022-11-15T01:36:07;10.10;99.90
47310;DHT22;33046;52.270;6.832;2022-11-15T01:38:32;10.10;99.90
47310;DHT22;33046;52.270;6.832;2022-11-15T01:40:59;10.00;99.90
47310;DHT22;33046;52.270;6.832;2022-11-15T01:43:27;10.10;99.90
47310;DHT22;33046;52.270;6.832;2022-11-15T01:45:56;10.10;99.90
47310;DHT22;33046;52.270;6.832;2022-11-15T01:48:25;10.10;99.90
47310;DHT22;33046;52.270;6.832;2022-11-15T01:50:54;10.10;99.90
47310;DHT22;33046;52.270;6.832;2022-11-15T01:53:21;10.10;99.90
47310;DHT22;33046;52.270;6.832;2022-11-15T01:55:48;10.10;99.90
47310;DHT22;33046;52.270;6.832;2022-11-15T01:58:15;10.10;99.90
47310;DHT22;33046;52.270;6.832;2022-11-15T02:00:41;10.10;99.90
47310;DHT22;33046;52.270;6.832;2022-11-15T02:03:06;10.10;99.90
47310;DHT22;33046;52.270;6.832;2022-11-15T02:05:32;10.10;99.90
47310;DHT22;33046;52.270;6.832;2022-11-15T02:08:00;10.10;99.90
47310;DHT22;33046;52.270;6.832;2022-11-15T02:10:27;10.20;99.90
47310;DHT22;33046;52.270;6.832;2022-11-15T02:12:52;10.20;99.90
47310;DHT22;33046;52.270;6.832;2022-11-15T02:15:20;10.20;99.90
47310;DHT22;33046;52.270;6.832;2022-11-15T02:18:05;10.20;99.90
47310;DHT22;33046;52.270;6.832;2022-11-15T02:20:41;10.20;99.90
47310;DHT22;33046;52.270;6.832;2022-11-15T02:23:31;10.20;99.90
47310;DHT22;33046;52.270;6.832;2022-11-15T02:26:10;10.20;99.90
47310;DHT22;33046;52.270;6.832;2022-11-15T02:28:53;10.30;99.90
47310;DHT22;33046;52.270;6.832;2022-11-15T02:31:28;10.30;99.90
47310;DHT22;33046;52.270;6.832;2022-11-15T02:34:01;10.30;99.90
47310;DHT22;33046;52.270;6.832;2022-11-15T02:36:35;10.30;99.90
47310;DHT22;33046;52.270;6.832;2022-11-15T02:39:02;10.40;99.90
47310;DHT22;33046;52.270;6.832;2022-11-15T02:41:31;10.30;99.90
47310;DHT22;33046;52.270;6.832;2022-11-15T02:44:02;10.40;99.90
47310;DHT22;33046;52.270;6.832;2022-11-15T02:46:35;10.40;99.90
47310;DHT22;33046;52.270;6.832;2022-11-15T02:49:02;10.40;99.90
47310;DHT22;33046;52.270;6.832;2022-11-15T02:51:27;10.40;99.90
47310;DHT22;33046;52.270;6.832;2022-11-15T02:53:53;10.40;99.90
47310;DHT22;33046;52.270;6.832;2022-11-15T02:56:18;10.40;99.90
47310;DHT22;33046;52.270;6.832;2022-11-15T02:59:04;10.50;99.90
47310;DHT22;33046;52.270;6.832;2022-11-15T03:01:39;10.50;99.90
47310;DHT22;33046;52.270;6.832;2022-11-15T03:04:16;10.50;99.90
47310;DHT22;33046;52.270;6.832;2022-11-15T03:06:47;10.50;99.90
47310;DHT22;33046;52.270;6.832;2022-11-15T03:09:19;10.50;99.90
47310;DHT22;33046;52.270;6.832;2022-11-15T03:11:52;10.60;99.90
47310;DHT22;33046;52.270;6.832;2022-11-15T03:14:22;10.60;99.90
47310;DHT22;33046;52.270;6.832;2022-11-15T03:16:58;10.60;99.90
47310;DHT22;33046;52.270;6.832;2022-11-15T03:19:29;10.60;99.90
47310;DHT22;33046;52.270;6.832;2022-11-15T03:21:58;10.60;99.90
47310;DHT22;33046;52.270;6.832;2022-11-15T03:24:25;10.60;99.90
47310;DHT22;33046;52.270;6.832;2022-11-15T03:26:53;10.60;99.90
47310;DHT22;33046;52.270;6.832;2022-11-15T03:29:22;10.60;99.90
47310;DHT22;33046;52.270;6.832;2022-11-15T03:31:55;10.70;99.90
47310;DHT22;33046;52.270;6.832;2022-11-15T03:34:26;10.70;99.90
47310;DHT22;33046;52.270;6.832;2022-11-15T03:36:53;10.70;99.90
47310;DHT22;33046;52.270;6.832;2022-11-15T03:39:20;10.80;99.90
47310;DHT22;33046;52.270;6.832;2022-11-15T03:41:48;10.80;99.90
47310;DHT22;33046;52.270;6.832;2022-11-15T03:44:19;10.80;99.90
47310;DHT22;33046;52.270;6.832;2022-11-15T03:46:52;10.80;99.90
47310;DHT22;33046;52.270;6.832;2022-11-15T03:49:25;10.80;99.90
47310;DHT22;33046;52.270;6.832;2022-11-15T03:51:52;10.90;99.90
47310;DHT22;33046;52.270;6.832;2022-11-15T03:54:18;10.90;99.90
47310;DHT22;33046;52.270;6.832;2022-11-15T03:56:43;11.00;99.90
47310;DHT22;33046;52.270;6.832;2022-11-15T03:59:09;10.90;99.90
47310;DHT22;33046;52.270;6.832;2022-11-15T04:01:34;11.00;99.90
47310;DHT22;33046;52.270;6.832;2022-11-15T04:04:01;11.00;99.90
47310;DHT22;33046;52.270;6.832;2022-11-15T04:06:26;11.00;99.90
47310;DHT22;33046;52.270;6.832;2022-11-15T04:08:52;11.00;99.90
47310;DHT22;33046;52.270;6.832;2022-11-15T04:11:17;11.00;99.90
47310;DHT22;33046;52.270;6.832;2022-11-15T04:13:43;11.10;99.90
47310;DHT22;33046;52.270;6.832;2022-11-15T04:16:08;11.10;99.90
47310;DHT22;33046;52.270;6.832;2022-11-15T04:18:33;11.10;99.90
47310;DHT22;33046;52.270;6.832;2022-11-15T04:21:00;11.10;99.90
47310;DHT22;33046;52.270;6.832;2022-11-15T04:23:26;11.10;99.90
47310;DHT22;33046;52.270;6.832;2022-11-15T04:25:53;11.10;99.90
47310;DHT22;33046;52.270;6.832;2022-11-15T04:28:19;11.10;99.90
47310;DHT22;33046;52.270;6.832;2022-11-15T04:30:44;11.10;99.90
47310;DHT22;33046;52.270;6.832;2022-11-15T04:33:10;11.10;99.90
47310;DHT22;33046;52.270;6.832;2022-11-15T04:35:35;11.20;99.90
47310;DHT22;33046;52.270;6.832;2022-11-15T04:38:04;11.20;99.90
47310;DHT22;33046;52.270;6.832;2022-11-15T04:40:29;11.20;99.90
47310;DHT22;33046;52.270;6.832;2022-11-15T04:42:55;11.20;99.90
47310;DHT22;33046;52.270;6.832;2022-11-15T04:45:23;11.20;99.90
47310;DHT22;33046;52.270;6.832;2022-11-15T04:47:49;11.20;99.90
47310;DHT22;33046;52.270;6.832;2022-11-15T04:50:15;11.20;99.90
47310;DHT22;33046;52.270;6.832;2022-11-15T04:52:41;11.20;99.90
47310;DHT22;33046;52.270;6.832;2022-11-15T04:55:08;11.30;99.90
47310;DHT22;33046;52.270;6.832;2022-11-15T04:57:33;11.30;99.90
47310;DHT22;33046;52.270;6.832;2022-11-15T04:59:59;11.30;99.90
47310;DHT22;33046;52.270;6.832;2022-11-15T05:02:24;11.30;99.90
47310;DHT22;33046;52.270;6.832;2022-11-15T05:04:50;11.30;99.90
47310;DHT22;33046;52.270;6.832;2022-11-15T05:07:15;11.30;99.90
47310;DHT22;33046;52.270;6.832;2022-11-15T05:09:41;11.40;99.90
47310;DHT22;33046;52.270;6.832;2022-11-15T05:12:08;11.40;99.90
47310;DHT22;33046;52.270;6.832;2022-11-15T05:14:33;11.40;99.90
47310;DHT22;33046;52.270;6.832;2022-11-15T05:16:58;11.40;99.90
47310;DHT22;33046;52.270;6.832;2022-11-15T05:19:24;11.40;99.90
47310;DHT22;33046;52.270;6.832;2022-11-15T05:21:49;11.40;99.90
47310;DHT22;33046;52.270;6.832;2022-11-15T05:24:15;11.50;99.90
47310;DHT22;33046;52.270;6.832;2022-11-15T05:26:40;11.40;99.90
47310;DHT22;33046;52.270;6.832;2022-11-15T05:29:09;11.50;99.90
47310;DHT22;33046;52.270;6.832;2022-11-15T05:31:39;11.50;99.90
47310;DHT22;33046;52.270;6.832;2022-11-15T05:34:05;11.50;99.90
47310;DHT22;33046;52.270;6.832;2022-11-15T05:36:34;11.50;99.90
47310;DHT22;33046;52.270;6.832;2022-11-15T05:39:01;11.50;99.90
47310;DHT22;33046;52.270;6.832;2022-11-15T05:41:30;11.50;99.90
47310;DHT22;33046;52.270;6.832;2022-11-15T05:43:57;11.60;99.90
47310;DHT22;33046;52.270;6.832;2022-11-15T05:46:25;11.50;99.90
47310;DHT22;33046;52.270;6.832;2022-11-15T05:48:51;11.60;99.90
47310;DHT22;33046;52.270;6.832;2022-11-15T05:51:19;11.60;99.90
47310;DHT22;33046;52.270;6.832;2022-11-15T05:53:45;11.50;99.90
47310;DHT22;33046;52.270;6.832;2022-11-15T05:56:12;11.60;99.90
47310;DHT22;33046;52.270;6.832;2022-11-15T05:58:37;11.60;99.90
47310;DHT22;33046;52.270;6.832;2022-11-15T06:01:03;11.60;99.90
47310;DHT22;33046;52.270;6.832;2022-11-15T06:03:30;11.60;99.90
47310;DHT22;33046;52.270;6.832;2022-11-15T06:05:56;11.60;99.90
47310;DHT22;33046;52.270;6.832;2022-11-15T06:08:22;11.70;99.90
47310;DHT22;33046;52.270;6.832;2022-11-15T06:10:48;11.70;99.90
47310;DHT22;33046;52.270;6.832;2022-11-15T06:13:13;11.70;99.90
47310;DHT22;33046;52.270;6.832;2022-11-15T06:15:39;11.70;99.90
47310;DHT22;33046;52.270;6.832;2022-11-15T06:18:04;11.70;99.90
47310;DHT22;33046;52.270;6.832;2022-11-15T06:20:31;11.70;99.90
47310;DHT22;33046;52.270;6.832;2022-11-15T06:22:57;11.80;99.90
47310;DHT22;33046;52.270;6.832;2022-11-15T06:25:23;11.70;99.90
47310;DHT22;33046;52.270;6.832;2022-11-15T06:27:51;11.80;99.90
47310;DHT22;33046;52.270;6.832;2022-11-15T06:30:16;11.80;99.90
47310;DHT22;33046;52.270;6.832;2022-11-15T06:32:42;11.80;99.90
47310;DHT22;33046;52.270;6.832;2022-11-15T06:35:07;11.80;99.90
47310;DHT22;33046;52.270;6.832;2022-11-15T06:37:34;11.80;99.90
47310;DHT22;33046;52.270;6.832;2022-11-15T06:40:00;11.80;99.90
47310;DHT22;33046;52.270;6.832;2022-11-15T06:42:25;11.70;99.90
47310;DHT22;33046;52.270;6.832;2022-11-15T06:44:51;11.80;99.90
47310;DHT22;33046;52.270;6.832;2022-11-15T06:47:16;11.80;99.90
47310;DHT22;33046;52.270;6.832;2022-11-15T06:49:42;11.80;99.90
47310;DHT22;33046;52.270;6.832;2022-11-15T06:52:07;11.90;99.90
47310;DHT22;33046;52.270;6.832;2022-11-15T06:54:34;11.80;99.90
47310;DHT22;33046;52.270;6.832;2022-11-15T06:56:59;11.80;99.90
47310;DHT22;33046;52.270;6.832;2022-11-15T06:59:25;11.80;99.90
47310;DHT22;33046;52.270;6.832;2022-11-15T07:01:50;11.90;99.90
47310;DHT22;33046;52.270;6.832;2022-11-15T07:04:16;11.80;99.90
47310;DHT22;33046;52.270;6.832;2022-11-15T07:06:41;11.80;99.90
47310;DHT22;33046;52.270;6.832;2022-11-15T07:09:07;11.80;99.90
47310;DHT22;33046;52.270;6.832;2022-11-15T07:11:34;11.90;99.90
47310;DHT22;33046;52.270;6.832;2022-11-15T07:13:59;11.90;99.90
47310;DHT22;33046;52.270;6.832;2022-11-15T07:16:25;11.90;99.90
47310;DHT22;33046;52.270;6.832;2022-11-15T07:18:50;11.90;99.90
47310;DHT22;33046;52.270;6.832;2022-11-15T07:21:16;11.90;99.90
47310;DHT22;33046;52.270;6.832;2022-11-15T07:23:41;11.90;99.90
47310;DHT22;33046;52.270;6.832;2022-11-15T07:26:07;11.90;99.90
47310;DHT22;33046;52.270;6.832;2022-11-15T07:28:35;11.90;99.90
47310;DHT22;33046;52.270;6.832;2022-11-15T07:31:02;11.90;99.90
47310;DHT22;33046;52.270;6.832;2022-11-15T07:33:27;11.90;99.90
47310;DHT22;33046;52.270;6.832;2022-11-15T07:35:53;11.90;99.90
47310;DHT22;33046;52.270;6.832;2022-11-15T07:38:18;11.90;99.90
47310;DHT22;33046;52.270;6.832;2022-11-15T07:40:44;11.90;99.90
47310;DHT22;33046;52.270;6.832;2022-11-15T07:43:09;12.00;99.90
47310;DHT22;33046;52.270;6.832;2022-11-15T07:45:42;12.00;99.90
47310;DHT22;33046;52.270;6.832;2022-11-15T07:48:07;12.00;99.90
47310;DHT22;33046;52.270;6.832;2022-11-15T07:50:33;12.00;99.90
47310;DHT22;33046;52.270;6.832;2022-11-15T07:52:59;12.00;99.90
47310;DHT22;33046;52.270;6.832;2022-11-15T07:55:26;12.00;99.90
47310;DHT22;33046;52.270;6.832;2022-11-15T07:57:51;12.00;99.90
47310;DHT22;33046;52.270;6.832;2022-11-15T08:00:18;12.00;99.90
47310;DHT22;33046;52.270;6.832;2022-11-15T08:02:45;12.10;99.90
47310;DHT22;33046;52.270;6.832;2022-11-15T08:05:11;12.00;99.90
47310;DHT22;33046;52.270;6.832;2022-11-15T08:07:36;12.10;99.90
47310;DHT22;33046;52.270;6.832;2022-11-15T08:10:02;12.10;99.90
47310;DHT22;33046;52.270;6.832;2022-11-15T08:12:28;12.10;99.90
47310;DHT22;33046;52.270;6.832;2022-11-15T08:14:53;12.20;99.90
47310;DHT22;33046;52.270;6.832;2022-11-15T08:17:19;12.20;99.90
47310;DHT22;33046;52.270;6.832;2022-11-15T08:19:45;12.20;99.90
47310;DHT22;33046;52.270;6.832;2022-11-15T08:22:11;12.20;99.90
47310;DHT22;33046;52.270;6.832;2022-11-15T08:24:36;12.30;99.90
47310;DHT22;33046;52.270;6.832;2022-11-15T08:27:02;12.30;99.90
47310;DHT22;33046;52.270;6.832;2022-11-15T08:29:27;12.30;99.90
47310;DHT22;33046;52.270;6.832;2022-11-15T08:31:54;12.30;99.90
47310;DHT22;33046;52.270;6.832;2022-11-15T08:34:20;12.30;99.90
47310;DHT22;33046;52.270;6.832;2022-11-15T08:36:47;12.30;99.90
47310;DHT22;33046;52.270;6.832;2022-11-15T08:39:12;12.30;99.90
47310;DHT22;33046;52.270;6.832;2022-11-15T08:41:38;12.30;99.90
47310;DHT22;33046;52.270;6.832;2022-11-15T08:44:03;12.30;99.90
47310;DHT22;33046;52.270;6.832;2022-11-15T08:46:29;12.30;99.90
47310;DHT22;33046;52.270;6.832;2022-11-15T08:48:54;12.30;99.90
47310;DHT22;33046;52.270;6.832;2022-11-15T08:51:20;12.30;99.90
47310;DHT22;33046;52.270;6.832;2022-11-15T08:53:47;12.30;99.90
47310;DHT22;33046;52.270;6.832;2022-11-15T08:56:14;12.40;99.90
47310;DHT22;33046;52.270;6.832;2022-11-15T08:58:39;12.40;99.90
47310;DHT22;33046;52.270;6.832;2022-11-15T09:01:05;12.40;99.90
47310;DHT22;33046;52.270;6.832;2022-11-15T09:03:31;12.40;99.90
47310;DHT22;33046;52.270;6.832;2022-11-15T09:05:57;12.50;99.90
47310;DHT22;33046;52.270;6.832;2022-11-15T09:08:22;12.50;99.90
47310;DHT22;33046;52.270;6.832;2022-11-15T09:11:10;12.60;99.90
47310;DHT22;33046;52.270;6.832;2022-11-15T09:13:35;12.60;99.90
47310;DHT22;33046;52.270;6.832;2022-11-15T09:16:01;12.60;99.90
47310;DHT22;33046;52.270;6.832;2022-11-15T09:18:27;12.60;99.90
47310;DHT22;33046;52.270;6.832;2022-11-15T09:20:55;12.60;99.90
47310;DHT22;33046;52.270;6.832;2022-11-15T09:23:20;12.60;99.90
47310;DHT22;33046;52.270;6.832;2022-11-15T09:25:45;12.60;99.90
47310;DHT22;33046;52.270;6.832;2022-11-15T09:28:12;12.60;99.90
47310;DHT22;33046;52.270;6.832;2022-11-15T09:30:38;12.60;99.90
47310;DHT22;33046;52.270;6.832;2022-11-15T09:33:06;12.60;99.90
47310;DHT22;33046;52.270;6.832;2022-11-15T09:35:32;12.60;99.90
47310;DHT22;33046;52.270;6.832;2022-11-15T09:37:57;12.60;99.90
47310;DHT22;33046;52.270;6.832;2022-11-15T09:40:23;12.60;99.90
47310;DHT22;33046;52.270;6.832;2022-11-15T09:42:59;12.60;99.90
47310;DHT22;33046;52.270;6.832;2022-11-15T09:45:33;12.60;99.90
47310;DHT22;33046;52.270;6.832;2022-11-15T09:51:25;12.70;99.90
47310;DHT22;33046;52.270;6.832;2022-11-15T09:53:39;12.70;99.90
47310;DHT22;33046;52.270;6.832;2022-11-15T09:56:11;12.80;99.90
47310;DHT22;33046;52.270;6.832;2022-11-15T09:58:26;12.80;99.90
47310;DHT22;33046;52.270;6.832;2022-11-15T10:00:41;12.90;99.90
47310;DHT22;33046;52.270;6.832;2022-11-15T10:03:09;12.90;99.90
47310;DHT22;33046;52.270;6.832;2022-11-15T10:05:19;13.00;99.90
47310;DHT22;33046;52.270;6.832;2022-11-15T10:07:31;13.00;99.90
47310;DHT22;33046;52.270;6.832;2022-11-15T10:09:45;13.00;99.90
47310;DHT22;33046;52.270;6.832;2022-11-15T10:11:54;13.00;99.90
47310;DHT22;33046;52.270;6.832;2022-11-15T10:14:04;13.00;99.90
47310;DHT22;33046;52.270;6.832;2022-11-15T10:16:30;13.10;99.90
47310;DHT22;33046;52.270;6.832;2022-11-15T10:18:48;13.10;99.90
47310;DHT22;33046;52.270;6.832;2022-11-15T10:21:02;13.10;99.90
47310;DHT22;33046;52.270;6.832;2022-11-15T10:23:15;13.10;99.90
47310;DHT22;33046;52.270;6.832;2022-11-15T10:25:24;13.10;99.90
47310;DHT22;33046;52.270;6.832;2022-11-15T10:27:31;13.20;99.90
47310;DHT22;33046;52.270;6.832;2022-11-15T10:29:43;13.20;99.90
47310;DHT22;33046;52.270;6.832;2022-11-15T10:31:51;13.20;99.90
47310;DHT22;33046;52.270;6.832;2022-11-15T10:34:09;13.30;99.90
47310;DHT22;33046;52.270;6.832;2022-11-15T10:36:21;13.30;99.90
47310;DHT22;33046;52.270;6.832;2022-11-15T10:38:28;13.40;99.90
47310;DHT22;33046;52.270;6.832;2022-11-15T10:40:35;13.40;99.90
47310;DHT22;33046;52.270;6.832;2022-11-15T10:42:42;13.40;99.90
47310;DHT22;33046;52.270;6.832;2022-11-15T10:44:49;13.50;99.90
47310;DHT22;33046;52.270;6.832;2022-11-15T10:47:28;13.50;99.90
47310;DHT22;33046;52.270;6.832;2022-11-15T10:49:53;13.60;99.90
47310;DHT22;33046;52.270;6.832;2022-11-15T10:52:02;13.50;99.90
47310;DHT22;33046;52.270;6.832;2022-11-15T10:54:11;13.60;99.90
47310;DHT22;33046;52.270;6.832;2022-11-15T10:56:21;13.60;99.90
47310;DHT22;33046;52.270;6.832;2022-11-15T10:58:35;13.60;99.90
47310;DHT22;33046;52.270;6.832;2022-11-15T11:00:43;13.60;99.90
47310;DHT22;33046;52.270;6.832;2022-11-15T11:02:59;13.60;99.90
47310;DHT22;33046;52.270;6.832;2022-11-15T11:05:25;13.60;99.90
47310;DHT22;33046;52.270;6.832;2022-11-15T11:07:33;13.60;99.90
47310;DHT22;33046;52.270;6.832;2022-11-15T11:09:41;13.60;99.90
47310;DHT22;33046;52.270;6.832;2022-11-15T11:11:48;13.70;99.90
47310;DHT22;33046;52.270;6.832;2022-11-15T11:14:11;13.70;99.90
47310;DHT22;33046;52.270;6.832;2022-11-15T11:16:46;13.70;99.90
47310;DHT22;33046;52.270;6.832;2022-11-15T11:19:03;13.80;99.90
47310;DHT22;33046;52.270;6.832;2022-11-15T11:21:14;13.80;99.90
47310;DHT22;33046;52.270;6.832;2022-11-15T11:23:38;13.80;99.90
47310;DHT22;33046;52.270;6.832;2022-11-15T11:25:56;13.80;99.90
47310;DHT22;33046;52.270;6.832;2022-11-15T11:28:29;13.80;99.90
47310;DHT22;33046;52.270;6.832;2022-11-15T11:30:45;13.80;99.90
47310;DHT22;33046;52.270;6.832;2022-11-15T11:33:10;13.80;99.90
47310;DHT22;33046;52.270;6.832;2022-11-15T11:35:24;13.80;99.90
47310;DHT22;33046;52.270;6.832;2022-11-15T11:37:39;13.80;99.90
47310;DHT22;33046;52.270;6.832;2022-11-15T11:39:56;13.80;99.90
47310;DHT22;33046;52.270;6.832;2022-11-15T11:42:13;13.80;99.90
47310;DHT22;33046;52.270;6.832;2022-11-15T11:44:34;13.80;99.90
47310;DHT22;33046;52.270;6.832;2022-11-15T11:46:49;13.80;99.90
47310;DHT22;33046;52.270;6.832;2022-11-15T11:49:02;13.90;99.90
47310;DHT22;33046;52.270;6.832;2022-11-15T11:51:18;14.00;99.90
47310;DHT22;33046;52.270;6.832;2022-11-15T11:53:27;14.00;99.90
47310;DHT22;33046;52.270;6.832;2022-11-15T11:55:38;14.00;99.90
47310;DHT22;33046;52.270;6.832;2022-11-15T11:57:50;14.10;99.90
47310;DHT22;33046;52.270;6.832;2022-11-15T12:00:02;14.10;99.90
47310;DHT22;33046;52.270;6.832;2022-11-15T12:02:24;14.10;99.90
47310;DHT22;33046;52.270;6.832;2022-11-15T12:04:37;14.20;99.90
47310;DHT22;33046;52.270;6.832;2022-11-15T12:06:50;14.20;99.90
47310;DHT22;33046;52.270;6.832;2022-11-15T12:09:02;14.20;99.90
47310;DHT22;33046;52.270;6.832;2022-11-15T12:11:16;14.20;99.90
47310;DHT22;33046;52.270;6.832;2022-11-15T12:13:26;14.10;99.90
47310;DHT22;33046;52.270;6.832;2022-11-15T12:15:41;14.20;99.90
47310;DHT22;33046;52.270;6.832;2022-11-15T12:17:49;14.20;99.90
47310;DHT22;33046;52.270;6.832;2022-11-15T12:19:57;14.10;99.90
47310;DHT22;33046;52.270;6.832;2022-11-15T12:22:12;14.20;99.90
47310;DHT22;33046;52.270;6.832;2022-11-15T12:24:23;14.20;99.90
47310;DHT22;33046;52.270;6.832;2022-11-15T12:26:33;14.10;99.90
47310;DHT22;33046;52.270;6.832;2022-11-15T12:28:45;14.10;99.90
47310;DHT22;33046;52.270;6.832;2022-11-15T12:31:10;14.20;99.90
47310;DHT22;33046;52.270;6.832;2022-11-15T12:33:32;14.20;99.90
47310;DHT22;33046;52.270;6.832;2022-11-15T12:35:42;14.20;99.90
47310;DHT22;33046;52.270;6.832;2022-11-15T12:37:51;14.10;99.90
47310;DHT22;33046;52.270;6.832;2022-11-15T12:40:18;14.10;99.90
47310;DHT22;33046;52.270;6.832;2022-11-15T12:42:41;14.10;99.90
47310;DHT22;33046;52.270;6.832;2022-11-15T12:44:58;14.10;99.90
47310;DHT22;33046;52.270;6.832;2022-11-15T12:47:23;14.10;99.90
47310;DHT22;33046;52.270;6.832;2022-11-15T12:49:47;14.10;99.90
47310;DHT22;33046;52.270;6.832;2022-11-15T12:52:05;14.10;99.90
47310;DHT22;33046;52.270;6.832;2022-11-15T12:54:52;14.10;99.90
47310;DHT22;33046;52.270;6.832;2022-11-15T12:59:48;14.10;99.90
47310;DHT22;33046;52.270;6.832;2022-11-15T13:01:57;14.10;99.90
47310;DHT22;33046;52.270;6.832;2022-11-15T13:04:13;14.10;99.90
47310;DHT22;33046;52.270;6.832;2022-11-15T13:06:39;14.10;99.90
47310;DHT22;33046;52.270;6.832;2022-11-15T13:08:48;14.10;99.90
47310;DHT22;33046;52.270;6.832;2022-11-15T13:10:57;14.10;99.90
47310;DHT22;33046;52.270;6.832;2022-11-15T13:13:06;14.00;99.90
47310;DHT22;33046;52.270;6.832;2022-11-15T13:15:35;14.00;99.90
47310;DHT22;33046;52.270;6.832;2022-11-15T13:17:47;14.00;99.90
47310;DHT22;33046;52.270;6.832;2022-11-15T13:19:59;14.00;99.90
47310;DHT22;33046;52.270;6.832;2022-11-15T13:22:09;14.00;99.90
47310;DHT22;33046;52.270;6.832;2022-11-15T13:24:16;14.00;99.90
47310;DHT22;33046;52.270;6.832;2022-11-15T13:26:24;14.10;99.90
47310;DHT22;33046;52.270;6.832;2022-11-15T13:28:33;14.10;99.90
47310;DHT22;33046;52.270;6.832;2022-11-15T13:30:48;14.00;99.90
47310;DHT22;33046;52.270;6.832;2022-11-15T13:32:56;14.00;99.90
47310;DHT22;33046;52.270;6.832;2022-11-15T13:35:07;14.00;99.90
47310;DHT22;33046;52.270;6.832;2022-11-15T13:37:28;14.00;99.90
47310;DHT22;33046;52.270;6.832;2022-11-15T13:39:35;14.00;99.90
47310;DHT22;33046;52.270;6.832;2022-11-15T13:41:48;14.00;99.90
47310;DHT22;33046;52.270;6.832;2022-11-15T13:43:56;14.00;99.90
47310;DHT22;33046;52.270;6.832;2022-11-15T13:46:10;13.90;98.90
47310;DHT22;33046;52.270;6.832;2022-11-15T13:48:17;13.90;99.80
47310;DHT22;33046;52.270;6.832;2022-11-15T13:50:27;13.90;99.90
47310;DHT22;33046;52.270;6.832;2022-11-15T13:52:37;13.90;99.10
47310;DHT22;33046;52.270;6.832;2022-11-15T13:54:50;13.90;98.80
47310;DHT22;33046;52.270;6.832;2022-11-15T13:57:03;13.80;99.60
47310;DHT22;33046;52.270;6.832;2022-11-15T13:59:15;13.80;99.50
47310;DHT22;33046;52.270;6.832;2022-11-15T14:01:28;13.90;99.70
47310;DHT22;33046;52.270;6.832;2022-11-15T14:03:46;13.80;99.70
47310;DHT22;33046;52.270;6.832;2022-11-15T14:06:05;13.80;99.80
47310;DHT22;33046;52.270;6.832;2022-11-15T14:08:22;13.80;99.30
47310;DHT22;33046;52.270;6.832;2022-11-15T14:10:31;13.80;99.50
47310;DHT22;33046;52.270;6.832;2022-11-15T14:12:50;13.80;99.10
47310;DHT22;33046;52.270;6.832;2022-11-15T14:14:57;13.80;99.30
47310;DHT22;33046;52.270;6.832;2022-11-15T14:17:04;13.70;99.60
47310;DHT22;33046;52.270;6.832;2022-11-15T14:19:12;13.70;99.20
47310;DHT22;33046;52.270;6.832;2022-11-15T14:21:20;13.70;99.30
47310;DHT22;33046;52.270;6.832;2022-11-15T14:23:27;13.70;99.40
47310;DHT22;33046;52.270;6.832;2022-11-15T14:25:34;13.70;99.60
47310;DHT22;33046;52.270;6.832;2022-11-15T14:27:44;13.70;99.80
47310;DHT22;33046;52.270;6.832;2022-11-15T14:29:51;13.70;99.10
47310;DHT22;33046;52.270;6.832;2022-11-15T14:32:12;13.70;98.40
47310;DHT22;33046;52.270;6.832;2022-11-15T14:34:20;13.70;97.90
47310;DHT22;33046;52.270;6.832;2022-11-15T14:36:26;13.60;98.30
47310;DHT22;33046;52.270;6.832;2022-11-15T14:38:33;13.60;98.70
47310;DHT22;33046;52.270;6.832;2022-11-15T14:40:40;13.60;99.10
47310;DHT22;33046;52.270;6.832;2022-11-15T14:42:49;13.60;98.80
47310;DHT22;33046;52.270;6.832;2022-11-15T14:44:56;13.50;98.90
47310;DHT22;33046;52.270;6.832;2022-11-15T14:47:03;13.50;99.10
47310;DHT22;33046;52.270;6.832;2022-11-15T14:49:10;13.50;98.80
47310;DHT22;33046;52.270;6.832;2022-11-15T14:51:17;13.50;99.00
47310;DHT22;33046;52.270;6.832;2022-11-15T14:53:24;13.50;99.10
47310;DHT22;33046;52.270;6.832;2022-11-15T14:55:32;13.50;98.90
47310;DHT22;33046;52.270;6.832;2022-11-15T14:57:39;13.40;99.30
47310;DHT22;33046;52.270;6.832;2022-11-15T14:59:47;13.40;98.90
47310;DHT22;33046;52.270;6.832;2022-11-15T15:01:54;13.40;98.70
47310;DHT22;33046;52.270;6.832;2022-11-15T15:04:00;13.40;99.10
47310;DHT22;33046;52.270;6.832;2022-11-15T15:06:07;13.30;99.30